Time;durP1;ratioP1;P1;durP2;ratioP2;P2;SDS_P1;SDS_P2;PMS_P1;PMS_P2;Temp;Humidity;BMP_temperature;BMP_pressure;BME280_temperature;BME280_humidity;BME280_pressure;Samples;Min_cycle;Max_cycle;Signal;HPM_P1;HPM_P2
2021/05/11 00:01:18;;;;;;;5.47;4.00;;;15.80;99.90;;;;;;5054826;28;20187;-67
2021/05/11 00:03:44;;;;;;;5.10;4.60;;;15.40;99.90;;;;;;5054076;28;20183;-61
2021/05/11 00:06:10;;;;;;;5.37;4.50;;;15.00;99.90;;;;;;5054556;28;20180;-62
2021/05/11 00:08:37;;;;;;;4.63;4.20;;;14.90;99.90;;;;;;5053816;28;20465;-61
2021/05/11 00:11:02;;;;;;;8.87;5.80;;;14.80;99.90;;;;;;5054387;28;20250;-61
2021/05/11 00:13:28;;;;;;;5.50;4.37;;;15.00;99.90;;;;;;5054374;28;20427;-62
2021/05/11 00:15:54;;;;;;;5.33;4.50;;;15.30;99.90;;;;;;5054487;28;20173;-61
2021/05/11 00:18:19;;;;;;;4.40;3.90;;;15.30;99.90;;;;;;5055032;28;20208;-62
2021/05/11 00:20:45;;;;;;;8.07;3.90;;;15.10;99.90;;;;;;5055678;28;20570;-61
2021/05/11 00:23:13;;;;;;;8.27;5.27;;;15.10;99.90;;;;;;5054542;28;20192;-61
2021/05/11 00:25:39;;;;;;;7.65;4.57;;;15.00;99.90;;;;;;5054375;28;20196;-61
2021/05/11 00:28:05;;;;;;;5.53;3.90;;;14.80;99.90;;;;;;5054231;28;20184;-61
2021/05/11 00:30:30;;;;;;;5.67;4.20;;;14.90;99.90;;;;;;5054595;28;20502;-61
2021/05/11 00:32:56;;;;;;;8.47;4.20;;;15.20;99.90;;;;;;5055317;28;20216;-61
2021/05/11 00:35:22;;;;;;;9.50;4.77;;;15.30;99.90;;;;;;5054827;28;20195;-63
2021/05/11 00:37:47;;;;;;;5.17;3.87;;;15.50;99.90;;;;;;5053594;28;20204;-61
2021/05/11 00:40:14;;;;;;;5.70;4.07;;;15.20;99.90;;;;;;5054842;28;20219;-63
2021/05/11 00:42:40;;;;;;;3.63;3.30;;;14.90;99.90;;;;;;5053546;28;20234;-63
2021/05/11 00:45:08;;;;;;;6.70;4.40;;;14.70;99.90;;;;;;5054161;28;20419;-63
2021/05/11 00:47:34;;;;;;;7.50;3.83;;;14.50;99.90;;;;;;5054395;28;20204;-63
2021/05/11 00:50:00;;;;;;;9.83;4.10;;;14.70;99.90;;;;;;5054455;28;20219;-64
2021/05/11 00:52:26;;;;;;;3.93;3.53;;;14.60;99.90;;;;;;5054290;28;20177;-64
2021/05/11 00:54:52;;;;;;;4.00;3.50;;;14.50;99.90;;;;;;5054015;28;20498;-63
2021/05/11 00:57:18;;;;;;;5.90;3.63;;;14.30;99.90;;;;;;5054154;28;20173;-63
2021/05/11 00:59:44;;;;;;;8.07;3.73;;;14.50;99.90;;;;;;5054438;28;20979;-63
2021/05/11 01:02:10;;;;;;;7.00;3.60;;;14.60;99.90;;;;;;5054250;28;20173;-63
2021/05/11 01:04:36;;;;;;;5.00;4.20;;;14.70;99.90;;;;;;5053963;28;20713;-63
2021/05/11 01:07:03;;;;;;;4.82;3.67;;;14.60;99.90;;;;;;5054083;28;20753;-63
2021/05/11 01:09:28;;;;;;;6.32;3.45;;;14.70;99.90;;;;;;5054036;28;20185;-64
2021/05/11 01:11:55;;;;;;;5.00;3.80;;;14.60;99.90;;;;;;5053854;28;20196;-63
2021/05/11 01:14:22;;;;;;;4.77;3.60;;;14.60;99.90;;;;;;5053818;28;20204;-63
2021/05/11 01:16:53;;;;;;;4.97;2.70;;;14.80;99.90;;;;;;5053907;28;20438;-63
2021/05/11 01:19:26;;;;;;;5.72;2.80;;;14.70;99.90;;;;;;5053807;28;20647;-63
2021/05/11 01:22:18;;;;;;;3.20;2.90;;;14.70;99.90;;;;;;5054187;28;20189;-63
2021/05/11 01:24:50;;;;;;;3.45;3.08;;;14.80;99.90;;;;;;5053492;28;20517;-63
2021/05/11 01:29:59;;;;;;;5.95;3.58;;;14.60;99.90;;;;;;5053704;28;20256;-64
2021/05/11 01:46:29;;;;;;;4.83;4.10;;;14.70;99.90;;;;;;5053203;28;20438;-66
2021/05/11 01:48:57;;;;;;;4.20;3.20;;;14.60;99.90;;;;;;5052355;28;20492;-66
2021/05/11 02:23:47;;;;;;;6.35;3.30;;;13.30;99.90;;;;;;5051949;28;20183;-66
2021/05/11 02:26:12;;;;;;;5.07;2.93;;;13.50;99.90;;;;;;5052289;28;20185;-66
2021/05/11 02:28:38;;;;;;;3.37;2.57;;;13.60;99.90;;;;;;5052257;28;20202;-66
2021/05/11 02:31:04;;;;;;;4.90;3.00;;;13.80;99.90;;;;;;5051932;28;20216;-66
2021/05/11 02:33:30;;;;;;;6.73;2.77;;;13.70;99.90;;;;;;5051845;28;20264;-67
2021/05/11 02:35:56;;;;;;;4.25;3.20;;;13.60;99.90;;;;;;5052000;28;20185;-67
2021/05/11 02:38:21;;;;;;;5.13;3.00;;;13.70;99.90;;;;;;5051976;28;20235;-67
2021/05/11 02:40:47;;;;;;;4.40;3.13;;;13.70;99.90;;;;;;5052121;28;20266;-66
2021/05/11 02:43:19;;;;;;;6.40;3.50;;;13.90;99.90;;;;;;5052035;28;20188;-67
2021/05/11 02:45:45;;;;;;;7.75;3.20;;;13.40;99.90;;;;;;5055410;28;20208;-67
2021/05/11 02:48:10;;;;;;;6.50;3.27;;;13.50;99.90;;;;;;5055059;28;20176;-67
2021/05/11 02:50:36;;;;;;;4.30;3.37;;;13.70;99.90;;;;;;5055803;28;20233;-67
2021/05/11 02:53:03;;;;;;;3.60;3.30;;;13.70;99.90;;;;;;5054822;28;20181;-67
2021/05/11 02:55:29;;;;;;;7.10;3.45;;;13.40;99.90;;;;;;5054521;28;20207;-63
2021/05/11 02:57:55;;;;;;;3.53;2.80;;;13.50;99.90;;;;;;5055565;28;20559;-66
2021/05/11 03:00:23;;;;;;;6.15;3.28;;;13.50;99.90;;;;;;5055464;28;20524;-66
2021/05/11 03:02:49;;;;;;;3.30;3.00;;;13.30;99.90;;;;;;5054320;28;20181;-67
2021/05/11 03:05:16;;;;;;;3.80;3.17;;;13.10;99.90;;;;;;5054123;28;20528;-67
2021/05/11 03:07:42;;;;;;;6.32;3.55;;;13.20;99.90;;;;;;5055643;28;20192;-66
2021/05/11 03:10:09;;;;;;;5.80;3.42;;;12.80;99.90;;;;;;5055326;28;20550;-66
2021/05/11 03:12:35;;;;;;;7.57;3.33;;;13.10;99.90;;;;;;5055403;28;20181;-66
2021/05/11 03:15:02;;;;;;;4.70;3.33;;;12.90;99.90;;;;;;5055003;28;20183;-66
2021/05/11 03:17:27;;;;;;;4.57;4.18;;;13.20;99.90;;;;;;5055455;28;20280;-66
2021/05/11 03:19:53;;;;;;;4.63;3.27;;;13.50;99.90;;;;;;5055224;28;20611;-66
2021/05/11 03:22:19;;;;;;;4.00;3.10;;;13.90;99.90;;;;;;5055390;28;20234;-66
2021/05/11 03:24:45;;;;;;;3.35;2.85;;;14.10;99.90;;;;;;5055077;28;20173;-66
2021/05/11 03:27:12;;;;;;;4.53;4.13;;;14.30;99.90;;;;;;5055286;28;20655;-66
2021/05/11 03:29:42;;;;;;;4.53;3.72;;;14.40;99.90;;;;;;5055211;28;20628;-66
2021/05/11 03:32:08;;;;;;;4.70;3.00;;;14.50;99.90;;;;;;5055399;28;20185;-66
2021/05/11 03:34:35;;;;;;;3.80;2.75;;;14.30;99.90;;;;;;5053935;28;20177;-66
2021/05/11 03:37:00;;;;;;;5.00;3.38;;;14.00;99.90;;;;;;5055325;28;20185;-66
2021/05/11 03:39:26;;;;;;;3.50;3.20;;;13.60;99.90;;;;;;5055193;28;20216;-66
2021/05/11 03:41:55;;;;;;;3.57;3.27;;;13.20;99.90;;;;;;5054982;28;20754;-66
2021/05/11 03:44:28;;;;;;;5.28;2.92;;;13.00;99.90;;;;;;5052765;28;20245;-66
2021/05/11 03:46:53;;;;;;;5.40;3.05;;;12.70;99.90;;;;;;5054844;28;20290;-67
2021/05/11 03:49:19;;;;;;;4.60;3.30;;;12.50;99.90;;;;;;5055042;28;20654;-66
2021/05/11 03:51:44;;;;;;;4.90;2.90;;;12.80;99.90;;;;;;5054937;28;20176;-66
2021/05/11 03:54:11;;;;;;;4.80;3.30;;;12.70;99.90;;;;;;5053466;28;20215;-66
2021/05/11 03:56:37;;;;;;;3.60;2.83;;;12.90;99.90;;;;;;5054474;28;20255;-66
2021/05/11 03:59:03;;;;;;;3.27;2.97;;;12.40;99.90;;;;;;5053445;28;20688;-66
2021/05/11 04:01:29;;;;;;;8.38;4.57;;;12.30;99.90;;;;;;5054602;28;20754;-66
2021/05/11 04:03:55;;;;;;;7.13;4.07;;;12.60;99.90;;;;;;5054343;28;20636;-66
2021/05/11 04:06:21;;;;;;;6.03;3.90;;;12.70;99.90;;;;;;5054696;28;20242;-66
2021/05/11 04:08:51;;;;;;;7.80;4.73;;;12.90;99.90;;;;;;5054640;28;20618;-66
2021/05/11 04:11:31;;;;;;;7.95;5.00;;;13.10;99.90;;;;;;5054724;28;20438;-67
2021/05/11 04:16:34;;;;;;;8.07;3.78;;;13.00;99.90;;;;;;5054345;28;20531;-66
2021/05/11 04:19:00;;;;;;;5.40;3.83;;;13.00;99.90;;;;;;5053188;28;20217;-67
2021/05/11 04:21:25;;;;;;;5.50;4.43;;;12.60;99.90;;;;;;5053916;28;20604;-66
2021/05/11 04:23:51;;;;;;;5.00;4.50;;;12.60;99.90;;;;;;5053536;28;20622;-66
2021/05/11 04:26:19;;;;;;;8.17;4.73;;;12.60;99.90;;;;;;5053951;28;20177;-66
2021/05/11 04:28:46;;;;;;;6.40;4.90;;;12.50;99.90;;;;;;5054156;28;20566;-66
2021/05/11 04:31:12;;;;;;;6.32;3.88;;;12.60;99.90;;;;;;5054155;28;20664;-66
2021/05/11 04:33:38;;;;;;;4.90;4.40;;;12.60;99.90;;;;;;5053795;28;20211;-66
2021/05/11 04:36:04;;;;;;;5.13;4.30;;;12.80;99.90;;;;;;5053818;28;20184;-66
2021/05/11 04:38:30;;;;;;;8.85;4.75;;;13.00;99.90;;;;;;5053882;28;20645;-66
2021/05/11 04:40:56;;;;;;;6.50;4.80;;;12.80;99.90;;;;;;5053954;28;20185;-66
2021/05/11 04:43:25;;;;;;;6.95;5.60;;;12.80;99.90;;;;;;5053501;28;20181;-66
2021/05/11 04:46:01;;;;;;;7.07;5.43;;;12.90;99.90;;;;;;5053684;28;20271;-67
2021/05/11 04:48:27;;;;;;;6.20;3.95;;;12.70;99.90;;;;;;5053673;28;20663;-66
2021/05/11 04:50:52;;;;;;;6.77;3.17;;;12.80;99.90;;;;;;5053492;28;20192;-66
2021/05/11 04:53:19;;;;;;;3.40;3.10;;;12.20;99.90;;;;;;5053603;28;20184;-65
2021/05/11 04:55:45;;;;;;;4.82;3.58;;;12.40;99.90;;;;;;5053405;28;20202;-65
2021/05/11 04:58:10;;;;;;;6.63;3.83;;;12.70;99.90;;;;;;5053670;28;20234;-65
2021/05/11 05:00:37;;;;;;;5.13;2.17;;;12.30;99.90;;;;;;5053133;28;20185;-64
2021/05/11 05:03:08;;;;;;;3.50;2.53;;;11.90;99.90;;;;;;5053390;28;20527;-64
2021/05/11 05:05:33;;;;;;;4.30;2.60;;;12.20;99.90;;;;;;5053239;28;20618;-64
2021/05/11 05:07:59;;;;;;;5.57;3.37;;;12.40;99.90;;;;;;5052969;28;20223;-64
2021/05/11 05:10:25;;;;;;;3.90;2.70;;;12.60;99.90;;;;;;5053138;28;20196;-64
2021/05/11 05:12:50;;;;;;;3.50;1.87;;;12.60;99.90;;;;;;5053247;28;20513;-64
2021/05/11 05:15:16;;;;;;;6.00;2.60;;;12.50;99.90;;;;;;5052698;28;20192;-64
2021/05/11 05:17:42;;;;;;;3.50;1.90;;;12.20;99.90;;;;;;5053045;28;20233;-63
2021/05/11 05:20:09;;;;;;;7.35;3.95;;;12.50;99.90;;;;;;5053339;28;20180;-63
2021/05/11 05:22:34;;;;;;;3.97;2.10;;;12.60;99.90;;;;;;5052956;28;20175;-63
2021/05/11 05:25:09;;;;;;;5.63;2.70;;;12.40;99.90;;;;;;5052657;28;20180;-62
2021/05/11 05:27:40;;;;;;;6.05;2.70;;;11.90;99.90;;;;;;5052954;28;20210;-62
2021/05/11 05:30:06;;;;;;;6.07;2.20;;;11.90;99.90;;;;;;5053021;28;20644;-63
2021/05/11 05:32:32;;;;;;;8.48;2.45;;;11.80;99.90;;;;;;5053279;28;20561;-62
2021/05/11 05:34:58;;;;;;;3.40;1.57;;;11.70;99.90;;;;;;5052623;28;20263;-62
2021/05/11 05:37:23;;;;;;;2.87;1.87;;;11.80;99.90;;;;;;5052908;28;20768;-62
2021/05/11 05:39:52;;;;;;;3.83;2.13;;;11.60;99.90;;;;;;5052681;28;20362;-62
2021/05/11 05:42:18;;;;;;;4.07;2.05;;;11.60;99.90;;;;;;5052825;28;20314;-63
2021/05/11 05:44:45;;;;;;;7.00;3.17;;;11.70;99.90;;;;;;5052393;28;20259;-64
2021/05/11 05:47:10;;;;;;;3.03;1.75;;;11.80;99.90;;;;;;5052411;28;20188;-63
2021/05/11 05:49:47;;;;;;;4.20;1.77;;;11.80;99.90;;;;;;5052817;28;20191;-63
2021/05/11 05:52:19;;;;;;;8.90;2.15;;;11.70;99.90;;;;;;5052851;28;20188;-63
2021/05/11 05:54:45;;;;;;;4.35;1.90;;;11.80;99.90;;;;;;5052125;28;20207;-63
2021/05/11 05:57:11;;;;;;;3.80;2.00;;;11.80;99.90;;;;;;5052460;28;20618;-62
2021/05/11 05:59:40;;;;;;;4.30;2.35;;;11.60;99.90;;;;;;5052423;28;20299;-61
2021/05/11 06:02:10;;;;;;;4.60;1.90;;;11.60;99.90;;;;;;5052715;28;20514;-61
2021/05/11 06:04:36;;;;;;;7.28;1.83;;;11.80;99.90;;;;;;5051430;28;20230;-61
2021/05/11 06:07:02;;;;;;;7.20;2.53;;;11.70;99.90;;;;;;5052666;28;20553;-61
2021/05/11 06:09:27;;;;;;;3.13;1.60;;;11.70;99.90;;;;;;5052766;28;20287;-61
2021/05/11 06:12:01;;;;;;;5.37;2.30;;;11.80;99.90;;;;;;5052264;28;20226;-61
2021/05/11 06:19:45;;;;;;;3.42;1.80;;;11.60;99.90;;;;;;5054397;28;20223;-60
2021/05/11 06:22:11;;;;;;;4.90;2.33;;;11.60;99.90;;;;;;5056505;28;20168;-61
2021/05/11 06:24:37;;;;;;;4.65;1.95;;;11.70;99.90;;;;;;5055855;28;20188;-60
2021/05/11 06:27:04;;;;;;;4.77;2.30;;;11.70;99.90;;;;;;5056549;28;20183;-61
2021/05/11 06:29:32;;;;;;;3.63;1.92;;;11.80;99.90;;;;;;5056405;28;20923;-60
2021/05/11 06:31:58;;;;;;;6.30;2.30;;;11.70;99.90;;;;;;5056282;28;20189;-60
2021/05/11 06:34:23;;;;;;;7.10;2.20;;;11.60;99.90;;;;;;5054664;28;20181;-60
2021/05/11 06:36:49;;;;;;;4.60;2.10;;;11.70;99.90;;;;;;5056642;28;20254;-60
2021/05/11 06:39:16;;;;;;;5.83;2.20;;;11.80;99.90;;;;;;5055940;28;20209;-60
2021/05/11 06:41:45;;;;;;;2.60;2.20;;;11.80;99.90;;;;;;5056034;28;20180;-60
2021/05/11 06:44:17;;;;;;;4.22;2.15;;;11.80;99.90;;;;;;5055601;28;20184;-60
2021/05/11 06:49:31;;;;;;;4.30;2.20;;;11.80;99.90;;;;;;5073953;28;20221;-60
2021/05/11 06:54:42;;;;;;;4.78;2.40;;;11.70;99.90;;;;;;5055909;28;20241;-61
2021/05/11 06:57:08;;;;;;;4.43;2.70;;;11.80;99.90;;;;;;5055783;28;20249;-60
2021/05/11 06:59:34;;;;;;;4.23;2.27;;;11.80;99.90;;;;;;5056276;28;20205;-60
2021/05/11 07:02:02;;;;;;;4.82;2.60;;;11.80;99.90;;;;;;5055675;28;20629;-62
2021/05/11 07:04:28;;;;;;;6.38;3.00;;;11.70;99.90;;;;;;5054087;28;20390;-63
2021/05/11 07:06:54;;;;;;;2.42;1.67;;;11.70;99.90;;;;;;5054481;28;20204;-63
2021/05/11 07:09:38;;;;;;;3.83;2.03;;;11.70;99.90;;;;;;5051824;28;20185;-63
2021/05/11 07:14:29;;;;;;;5.30;1.80;;;12.00;99.90;;;;;;5054683;28;20185;-63
2021/05/11 07:16:55;;;;;;;2.43;1.53;;;12.00;99.90;;;;;;5049593;28;20189;-62
2021/05/11 07:19:21;;;;;;;3.43;1.67;;;11.90;99.90;;;;;;5035281;28;20243;-64
2021/05/11 07:21:46;;;;;;;2.50;1.40;;;12.00;99.90;;;;;;5061590;28;20185;-64
2021/05/11 07:24:12;;;;;;;4.40;2.30;;;12.10;99.90;;;;;;5055073;28;20442;-64
2021/05/11 07:27:16;;;;;;;2.70;1.50;;;12.20;99.90;;;;;;5054937;28;20239;-62
2021/05/11 07:32:08;;;;;;;2.50;2.05;;;12.00;99.90;;;;;;5055261;28;20185;-64
2021/05/11 07:34:33;;;;;;;3.07;1.67;;;12.00;99.90;;;;;;5055013;28;20239;-63
2021/05/11 07:36:59;;;;;;;1.67;1.33;;;12.20;99.90;;;;;;5054929;28;20262;-62
2021/05/11 07:39:25;;;;;;;3.05;1.80;;;12.10;99.90;;;;;;5054865;28;20200;-62
2021/05/11 07:41:51;;;;;;;3.23;1.20;;;12.00;99.90;;;;;;5054718;28;20483;-63
2021/05/11 07:44:16;;;;;;;3.13;1.50;;;12.00;99.90;;;;;;5034756;28;20549;-62
2021/05/11 08:05:30;;;;;;;4.13;1.42;;;12.70;99.90;;;;;;5049979;28;20242;-62
2021/05/11 08:16:01;;;;;;;2.03;1.50;;;12.50;99.90;;;;;;5053982;28;20195;-61
2021/05/11 08:29:10;;;;;;;3.63;2.05;;;13.00;99.90;;;;;;5054197;28;20580;-60
2021/05/11 08:31:35;;;;;;;4.50;2.60;;;13.10;99.90;;;;;;5048231;28;20193;-61
2021/05/11 08:34:01;;;;;;;3.53;1.70;;;13.60;99.90;;;;;;5050685;28;20616;-61
2021/05/11 08:36:27;;;;;;;3.73;1.97;;;13.70;99.90;;;;;;5053195;28;20507;-63
2021/05/11 08:38:56;;;;;;;3.03;1.87;;;14.00;99.90;;;;;;5053710;28;20255;-64
2021/05/11 08:41:22;;;;;;;4.18;1.90;;;13.90;99.90;;;;;;5055398;28;20428;-66
2021/05/11 08:43:47;;;;;;;4.27;2.30;;;13.50;99.90;;;;;;5048459;28;20185;-62
2021/05/11 08:46:14;;;;;;;1.93;1.60;;;13.00;99.90;;;;;;5046460;28;20177;-63
2021/05/11 08:48:40;;;;;;;5.93;1.67;;;13.40;99.90;;;;;;5055148;28;20267;-63
2021/05/11 08:51:17;;;;;;;2.57;1.50;;;13.40;99.90;;;;;;5055707;28;20266;-62
2021/05/11 09:04:42;;;;;;;2.58;1.70;;;13.00;99.90;;;;;;5052548;28;20191;-61
2021/05/11 09:27:22;;;;;;;2.45;1.45;;;12.70;99.90;;;;;;5061843;28;20166;-66
2021/05/11 09:32:51;;;;;;;1.65;1.35;;;12.70;99.90;;;;;;5034143;28;20181;-60
2021/05/11 09:54:52;;;;;;;5.63;1.73;;;13.40;99.90;;;;;;5052721;28;20272;-62
2021/05/11 10:00:41;;;;;;;1.95;1.75;;;13.10;99.90;;;;;;5052900;28;20223;-64
2021/05/11 10:39:55;;;;;;;2.47;1.73;;;14.80;1.00;;;;;;5033253;28;20467;-60
2021/05/11 10:42:44;;;;;;;2.73;1.70;;;15.00;1.00;;;;;;5032930;28;20223;-62
2021/05/11 10:48:16;;;;;;;4.00;1.90;;;14.90;1.00;;;;;;5033006;28;20416;-63
2021/05/11 10:50:54;;;;;;;2.33;1.20;;;15.40;1.00;;;;;;5033181;28;20889;-63
2021/05/11 10:53:51;;;;;;;3.73;1.50;;;15.60;1.00;;;;;;5032736;28;20841;-63
2021/05/11 11:01:37;;;;;;;1.90;1.40;;;15.90;1.00;;;;;;5032644;28;20416;-63
2021/05/11 11:04:26;;;;;;;2.50;1.63;;;16.90;1.00;;;;;;5031303;28;20695;-63
2021/05/11 11:06:58;;;;;;;2.17;1.80;;;17.00;1.00;;;;;;5036115;28;20185;-58
2021/05/11 11:09:30;;;;;;;2.93;1.47;;;15.70;99.90;;;;;;5036605;28;20432;-63
2021/05/11 11:11:58;;;;;;;2.00;1.50;;;15.70;99.90;;;;;;5035438;28;20455;-65
2021/05/11 11:14:24;;;;;;;2.57;1.27;;;16.10;1.00;;;;;;5052197;28;20868;-65
2021/05/11 11:17:00;;;;;;;3.07;1.60;;;15.60;99.90;;;;;;5056085;28;20423;-64
2021/05/11 11:19:26;;;;;;;1.77;1.10;;;15.80;99.90;;;;;;5054623;28;20524;-67
2021/05/11 11:24:32;;;;;;;2.70;1.30;;;16.10;99.90;;;;;;5052408;28;20443;-59
2021/05/11 11:26:58;;;;;;;1.20;1.10;;;16.40;99.90;;;;;;5049475;28;20840;-59
2021/05/11 11:29:25;;;;;;;2.17;1.40;;;16.10;1.00;;;;;;5054135;28;20455;-65
2021/05/11 11:31:51;;;;;;;3.17;1.50;;;16.30;1.00;;;;;;5056052;28;20423;-59
2021/05/11 11:34:19;;;;;;;2.33;1.23;;;15.90;99.90;;;;;;5055227;28;20919;-60
2021/05/11 11:36:54;;;;;;;1.80;1.07;;;15.80;3.90;;;;;;5055359;28;20908;-61
2021/05/11 11:39:23;;;;;;;2.83;1.50;;;15.70;99.90;;;;;;5055536;28;20470;-64
2021/05/11 11:41:50;;;;;;;5.00;1.37;;;15.80;1.00;;;;;;5055162;28;20856;-62
2021/05/11 11:44:20;;;;;;;2.90;1.23;;;15.90;1.00;;;;;;5054889;28;20452;-65
2021/05/11 11:47:04;;;;;;;5.67;1.70;;;15.80;1.00;;;;;;5054853;28;20423;-65
2021/05/11 11:49:33;;;;;;;2.73;1.60;;;15.90;1.00;;;;;;5054574;28;20442;-66
2021/05/11 11:52:07;;;;;;;2.50;1.30;;;15.60;1.00;;;;;;5054674;28;20814;-66
2021/05/11 11:54:38;;;;;;;2.40;1.47;;;15.40;99.90;;;;;;5054379;28;20517;-65
2021/05/11 12:00:03;;;;;;;2.20;2.00;;;16.00;99.90;;;;;;5055077;28;20478;-66
2021/05/11 12:02:28;;;;;;;2.63;1.20;;;16.10;1.00;;;;;;5054616;28;20572;-66
2021/05/11 12:04:55;;;;;;;2.60;1.17;;;16.30;99.90;;;;;;5054088;28;20473;-66
2021/05/11 12:07:22;;;;;;;3.40;1.30;;;16.20;99.90;;;;;;5054595;28;20191;-66
2021/05/11 12:09:48;;;;;;;2.00;1.17;;;16.30;1.00;;;;;;5049952;28;20904;-60
2021/05/11 12:12:17;;;;;;;4.23;1.57;;;16.20;1.00;;;;;;5049607;28;20458;-66
2021/05/11 12:14:43;;;;;;;3.73;1.57;;;16.20;1.00;;;;;;5050667;28;20551;-67
2021/05/11 12:17:09;;;;;;;0.90;0.87;;;15.80;99.90;;;;;;5046822;28;20959;-66
2021/05/11 12:19:36;;;;;;;2.03;1.17;;;15.70;99.90;;;;;;5053620;28;20266;-66
2021/05/11 12:22:05;;;;;;;3.43;1.30;;;15.50;85.10;;;;;;5053968;28;20534;-66
2021/05/11 12:24:40;;;;;;;1.13;0.90;;;15.50;1.00;;;;;;5053710;28;20763;-67
2021/05/11 12:27:22;;;;;;;2.73;1.30;;;15.40;1.00;;;;;;5054114;28;20510;-66
2021/05/11 12:30:07;;;;;;;1.97;1.20;;;15.50;1.00;;;;;;5053865;28;20826;-66
2021/05/11 12:32:34;;;;;;;2.20;0.93;;;15.70;99.90;;;;;;5054028;28;20419;-68
2021/05/11 12:35:08;;;;;;;1.73;1.27;;;15.90;1.00;;;;;;5053712;28;20926;-67
2021/05/11 12:37:43;;;;;;;4.00;1.40;;;16.00;1.00;;;;;;5054137;28;20423;-67
2021/05/11 12:40:21;;;;;;;3.60;1.03;;;16.10;99.90;;;;;;5053465;28;20466;-67
2021/05/11 12:42:47;;;;;;;2.57;1.10;;;16.20;1.00;;;;;;5054166;28;20423;-68
2021/05/11 12:45:15;;;;;;;2.63;1.40;;;15.90;1.00;;;;;;5049702;28;20423;-68
2021/05/11 12:47:46;;;;;;;2.87;1.53;;;15.70;1.00;;;;;;5033666;28;20272;-68
2021/05/11 12:50:28;;;;;;;2.33;1.50;;;15.90;1.00;;;;;;5033474;28;20497;-67
2021/05/11 12:52:58;;;;;;;2.73;1.60;;;15.60;3.20;;;;;;5033386;28;20435;-67
2021/05/11 12:58:26;;;;;;;3.30;1.37;;;15.50;99.90;;;;;;5053159;28;20488;-68
2021/05/11 13:01:02;;;;;;;3.50;1.70;;;15.30;99.90;;;;;;5049057;28;20439;-68
2021/05/11 13:03:53;;;;;;;1.53;1.10;;;15.50;99.90;;;;;;5053159;28;20434;-68
2021/05/11 13:09:25;;;;;;;2.00;1.37;;;15.60;1.00;;;;;;5053244;28;20437;-66
2021/05/11 13:19:48;;;;;;;1.42;1.25;;;15.20;99.90;;;;;;5053579;28;20441;-67
2021/05/11 13:25:38;;;;;;;3.37;1.83;;;15.20;1.00;;;;;;5041581;28;20431;-66
2021/05/11 13:30:43;;;;;;;2.58;1.40;;;15.50;1.00;;;;;;5052767;28;20443;-66
2021/05/11 13:35:35;;;;;;;2.53;1.27;;;15.30;1.00;;;;;;5052603;28;20845;-66
2021/05/11 13:38:01;;;;;;;4.40;1.40;;;15.70;99.90;;;;;;5052697;28;20181;-66
2021/05/11 13:40:27;;;;;;;3.40;1.30;;;15.80;1.00;;;;;;5052707;28;20426;-67
2021/05/11 13:42:52;;;;;;;1.97;1.30;;;15.70;1.00;;;;;;5052770;28;20743;-68
2021/05/11 13:45:18;;;;;;;2.23;1.50;;;15.40;99.90;;;;;;5052756;28;20191;-69
2021/05/11 13:47:56;;;;;;;1.90;1.13;;;15.40;1.00;;;;;;5053240;28;20549;-69
2021/05/11 13:50:30;;;;;;;3.17;1.40;;;15.60;1.00;;;;;;5036974;28;20549;-68
2021/05/11 13:52:56;;;;;;;9.77;4.90;;;15.40;1.00;;;;;;5051090;28;20427;-68
2021/05/11 13:55:27;;;;;;;2.80;1.37;;;15.60;1.00;;;;;;5052199;28;20434;-68
2021/05/11 14:03:21;;;;;;;4.70;1.70;;;16.00;1.00;;;;;;5052674;28;20918;-68
2021/05/11 14:05:47;;;;;;;3.00;1.93;;;15.70;1.00;;;;;;5052662;28;20443;-64
2021/05/11 14:08:12;;;;;;;2.37;1.77;;;15.80;1.00;;;;;;5052718;28;20534;-64
2021/05/11 14:10:40;;;;;;;3.60;1.60;;;16.00;99.90;;;;;;5051590;28;20209;-66
2021/05/11 14:13:05;;;;;;;3.80;1.60;;;15.90;99.90;;;;;;5052162;28;20264;-67
2021/05/11 14:15:32;;;;;;;3.20;1.90;;;15.90;99.90;;;;;;5052218;28;20454;-66
2021/05/11 14:17:58;;;;;;;2.00;1.80;;;16.00;99.90;;;;;;5052706;28;20317;-63
2021/05/11 14:21:06;;;;;;;;;;;;;;;;;;;;;
2021/05/11 14:23:32;;;;;;;3.60;2.00;;;16.40;1.00;;;;;;5051811;28;20173;-64
2021/05/11 14:25:58;;;;;;;3.60;1.90;;;15.80;99.90;;;;;;5052559;28;21141;-63
2021/05/11 14:28:24;;;;;;;4.53;2.23;;;15.60;1.00;;;;;;5052482;28;20453;-60
2021/05/11 14:30:50;;;;;;;5.60;1.70;;;15.70;1.00;;;;;;5052297;28;20431;-63
2021/05/11 14:33:16;;;;;;;3.30;1.87;;;15.90;1.00;;;;;;5051785;28;20442;-66
2021/05/11 14:35:42;;;;;;;3.00;2.07;;;16.10;1.00;;;;;;5052251;28;20415;-66
2021/05/11 14:38:07;;;;;;;1.93;1.73;;;16.10;1.00;;;;;;5052095;28;20264;-65
2021/05/11 14:40:33;;;;;;;3.30;2.00;;;16.00;1.00;;;;;;5054331;28;20522;-67
2021/05/11 14:42:59;;;;;;;5.87;3.03;;;16.30;1.00;;;;;;5056407;28;20633;-67
2021/05/11 14:45:26;;;;;;;5.77;3.27;;;16.30;1.00;;;;;;5056302;28;20439;-68
2021/05/11 14:47:53;;;;;;;3.00;1.60;;;16.20;1.00;;;;;;5056774;28;20177;-65
2021/05/11 14:50:21;;;;;;;4.80;1.73;;;16.00;1.00;;;;;;5056320;28;20434;-66
2021/05/11 14:52:53;;;;;;;3.23;1.60;;;15.80;99.90;;;;;;5054886;28;20431;-63
2021/05/11 14:55:23;;;;;;;2.37;1.43;;;15.70;99.90;;;;;;5054351;28;20437;-62
2021/05/11 14:57:49;;;;;;;2.63;1.70;;;15.90;99.90;;;;;;5054721;28;20484;-61
2021/05/11 15:00:15;;;;;;;2.70;1.53;;;16.00;99.90;;;;;;5056402;28;20466;-61
2021/05/11 15:02:41;;;;;;;3.20;1.90;;;16.10;99.90;;;;;;5055626;28;20184;-61
2021/05/11 15:05:07;;;;;;;3.30;1.80;;;16.00;99.90;;;;;;5055697;28;20818;-61
2021/05/11 15:07:32;;;;;;;2.03;1.37;;;15.80;99.90;;;;;;5055909;28;20505;-59
2021/05/11 15:10:01;;;;;;;6.80;2.90;;;15.60;99.90;;;;;;5055801;28;20565;-60
2021/05/11 15:12:26;;;;;;;2.77;2.20;;;15.50;1.00;;;;;;5056214;28;20177;-60
2021/05/11 15:14:52;;;;;;;8.13;3.93;;;15.40;1.00;;;;;;5054723;28;20435;-60
2021/05/11 15:19:52;;;;;;;4.35;1.70;;;15.70;1.00;;;;;;5055538;28;20458;-60
2021/05/11 15:22:20;;;;;;;4.60;2.37;;;15.50;1.00;;;;;;5054628;28;20666;-61
2021/05/11 15:24:46;;;;;;;3.97;1.70;;;15.60;1.00;;;;;;5055609;28;20438;-60
2021/05/11 15:27:12;;;;;;;4.53;2.03;;;15.60;1.00;;;;;;5055720;28;20419;-61
2021/05/11 15:29:38;;;;;;;4.93;2.00;;;15.50;1.00;;;;;;5055279;28;20423;-61
2021/05/11 15:32:35;;;;;;;5.60;2.30;;;15.50;1.00;;;;;;5055408;28;20442;-60
2021/05/11 15:35:01;;;;;;;4.13;1.83;;;15.20;1.00;;;;;;5054850;28;20195;-60
2021/05/11 15:37:26;;;;;;;4.20;1.70;;;15.10;1.00;;;;;;5055696;28;20181;-59
2021/05/11 15:39:52;;;;;;;2.30;1.53;;;15.10;1.00;;;;;;5054998;28;20204;-60
2021/05/11 15:42:17;;;;;;;2.03;1.83;;;15.10;1.00;;;;;;5055152;28;20173;-60
2021/05/11 15:44:43;;;;;;;2.87;1.60;;;15.20;1.00;;;;;;5054659;28;20184;-60
2021/05/11 15:47:08;;;;;;;2.37;1.90;;;15.30;1.00;;;;;;5054379;28;20177;-60
2021/05/11 15:49:34;;;;;;;4.20;2.13;;;15.30;1.00;;;;;;5055303;28;20181;-61
2021/05/11 15:51:59;;;;;;;3.77;2.07;;;15.20;1.00;;;;;;5054574;28;20173;-59
2021/05/11 15:54:25;;;;;;;3.40;2.40;;;15.10;1.00;;;;;;5054371;28;20192;-60
2021/05/11 15:56:50;;;;;;;3.47;2.00;;;15.00;1.00;;;;;;5053972;28;20493;-60
2021/05/11 15:59:16;;;;;;;3.17;2.33;;;15.10;1.00;;;;;;5054956;28;20216;-60
2021/05/11 16:01:42;;;;;;;3.70;1.87;;;15.00;1.00;;;;;;5053953;28;20234;-60
2021/05/11 16:04:07;;;;;;;6.70;2.03;;;15.20;1.00;;;;;;5054146;28;20169;-60
2021/05/11 16:06:33;;;;;;;3.60;2.10;;;15.20;1.00;;;;;;5054704;28;20602;-60
2021/05/11 16:08:58;;;;;;;6.03;1.63;;;15.50;1.00;;;;;;5054756;28;20191;-60
2021/05/11 16:11:24;;;;;;;3.30;1.90;;;15.30;1.00;;;;;;5055032;28;20671;-60
2021/05/11 16:13:49;;;;;;;1.87;1.40;;;15.10;7.30;;;;;;5054401;28;20185;-60
2021/05/11 16:16:15;;;;;;;3.20;1.70;;;15.10;1.00;;;;;;5054567;28;20181;-60
2021/05/11 16:18:41;;;;;;;2.40;1.80;;;15.00;18.40;;;;;;5054583;28;20218;-60
2021/05/11 16:21:06;;;;;;;2.60;2.30;;;15.00;12.20;;;;;;5054754;28;20184;-60
2021/05/11 16:23:32;;;;;;;6.73;3.60;;;15.10;5.40;;;;;;5053407;28;20242;-61
2021/05/11 16:25:57;;;;;;;5.03;3.50;;;15.10;37.50;;;;;;5054285;28;20192;-60
2021/05/11 16:28:23;;;;;;;4.70;3.13;;;15.10;52.30;;;;;;5053987;28;20177;-60
2021/05/11 16:30:48;;;;;;;5.33;3.73;;;15.00;78.30;;;;;;5054209;28;20181;-60
2021/05/11 16:33:15;;;;;;;6.40;4.17;;;15.10;99.90;;;;;;5054172;28;20173;-60
2021/05/11 16:35:42;;;;;;;5.40;4.28;;;15.30;99.90;;;;;;5054115;28;20211;-61
2021/05/11 16:38:11;;;;;;;3.50;2.90;;;15.60;99.90;;;;;;5054291;28;20180;-59
2021/05/11 16:40:37;;;;;;;3.67;2.70;;;15.20;51.90;;;;;;5053891;28;20434;-61
2021/05/11 16:43:03;;;;;;;2.87;2.63;;;15.10;99.90;;;;;;5052829;28;20518;-58
2021/05/11 16:45:30;;;;;;;3.35;2.70;;;14.90;99.40;;;;;;5053578;28;20181;-62
2021/05/11 16:47:56;;;;;;;3.67;2.90;;;14.90;99.90;;;;;;5053741;28;20212;-62
2021/05/11 16:50:27;;;;;;;2.10;1.90;;;15.00;99.90;;;;;;5054211;28;20184;-63
2021/05/11 16:52:54;;;;;;;3.88;2.58;;;15.00;99.90;;;;;;5054034;28;20419;-62
2021/05/11 16:55:20;;;;;;;5.63;2.25;;;14.90;99.90;;;;;;5053506;28;20191;-62
2021/05/11 16:57:46;;;;;;;4.90;2.87;;;15.10;96.20;;;;;;5053791;28;20188;-62